Time;durP1;ratioP1;P1;durP2;ratioP2;P2;SDS_P1;SDS_P2;PMS_P1;PMS_P2;Temp;Humidity;BMP_temperature;BMP_pressure;BME280_temperature;BME280_humidity;BME280_pressure;Samples;Min_cycle;Max_cycle;Signal;HPM_P1;HPM_P2
2023/08/13 00:02:25;;;;;;;6.27;3.33;;;;;;;16.33;100.00;101032.56;6108300;28;20032;-66
2023/08/13 00:05:20;;;;;;;4.90;2.90;;;;;;;16.59;100.00;101066.09;6104776;28;20021;-66
2023/08/13 00:08:15;;;;;;;6.18;3.13;;;;;;;16.55;100.00;101067.44;6105012;28;20033;-65
2023/08/13 00:11:11;;;;;;;6.40;3.13;;;;;;;16.47;100.00;101048.72;6105364;28;20447;-65
2023/08/13 00:14:06;;;;;;;7.22;3.38;;;;;;;16.42;100.00;101055.59;6104513;28;20025;-65
2023/08/13 00:17:02;;;;;;;7.18;3.20;;;;;;;16.44;100.00;101062.44;6105058;28;20025;-65
2023/08/13 00:19:57;;;;;;;5.67;3.37;;;;;;;16.20;100.00;101053.72;6109257;28;20033;-65
2023/08/13 00:22:52;;;;;;;5.40;2.67;;;;;;;16.13;100.00;101058.09;6105051;28;20260;-66
2023/08/13 00:25:48;;;;;;;4.17;2.63;;;;;;;16.23;100.00;101045.31;6104605;28;20032;-65
2023/08/13 00:28:43;;;;;;;5.13;3.03;;;;;;;16.13;100.00;101058.91;6105103;28;20025;-65
2023/08/13 00:31:38;;;;;;;4.97;2.83;;;;;;;16.19;100.00;101068.94;6104779;28;20112;-65
2023/08/13 00:34:33;;;;;;;12.17;3.03;;;;;;;16.21;100.00;101055.38;6104664;28;20033;-65
2023/08/13 00:37:29;;;;;;;6.30;2.73;;;;;;;16.09;100.00;101052.22;6104755;28;20039;-66
2023/08/13 00:40:24;;;;;;;5.27;2.73;;;;;;;16.09;100.00;101062.94;6101944;28;20025;-65
2023/08/13 00:43:19;;;;;;;4.37;2.50;;;;;;;16.07;100.00;101075.66;6104121;28;20448;-66
2023/08/13 00:46:15;;;;;;;5.67;2.73;;;;;;;16.19;100.00;101076.97;6102558;28;20452;-65
2023/08/13 00:49:10;;;;;;;8.23;3.10;;;;;;;16.08;100.00;101078.19;6102216;28;20039;-66
2023/08/13 00:52:06;;;;;;;5.47;2.80;;;;;;;16.32;100.00;101055.81;6112489;28;20026;-66
2023/08/13 00:55:02;;;;;;;6.82;2.70;;;;;;;16.27;100.00;101071.59;6098960;28;20078;-65
2023/08/13 00:57:58;;;;;;;6.32;2.83;;;;;;;16.41;100.00;101076.22;6100856;28;20100;-65
2023/08/13 01:00:53;;;;;;;4.88;2.53;;;;;;;16.64;100.00;101084.28;6099350;28;20031;-65
2023/08/13 01:03:49;;;;;;;5.63;2.57;;;;;;;16.70;100.00;101080.09;6099987;28;20032;-66
2023/08/13 01:07:06;;;;;;;5.43;3.03;;;;;;;16.79;100.00;101084.38;6101547;28;20037;-65
2023/08/13 01:10:18;;;;;;;4.80;2.70;;;;;;;16.77;100.00;101070.34;6100568;28;20360;-65
2023/08/13 01:13:21;;;;;;;4.28;2.20;;;;;;;16.86;100.00;101078.13;6098903;28;20372;-65
2023/08/13 01:16:17;;;;;;;6.25;2.90;;;;;;;17.02;100.00;101082.53;6099361;28;20055;-65
2023/08/13 01:19:13;;;;;;;5.05;2.30;;;;;;;16.82;100.00;101089.41;6100998;28;20037;-65
2023/08/13 01:22:09;;;;;;;5.40;2.70;;;;;;;16.69;100.00;101076.56;6100425;28;20341;-66
2023/08/13 01:25:08;;;;;;;4.53;2.50;;;;;;;16.59;100.00;101087.50;6099527;28;20354;-65
2023/08/13 01:28:15;;;;;;;6.68;2.70;;;;;;;16.60;100.00;101094.50;6098666;28;20032;-65
2023/08/13 01:31:14;;;;;;;6.60;2.72;;;;;;;16.65;100.00;101075.25;6099914;28;20029;-65
2023/08/13 01:34:10;;;;;;;4.00;2.85;;;;;;;16.62;100.00;101065.75;6106013;28;20450;-65
2023/08/13 01:37:06;;;;;;;4.40;2.42;;;;;;;16.74;100.00;101092.13;6100144;28;20074;-66
2023/08/13 01:40:03;;;;;;;3.88;2.30;;;;;;;16.49;100.00;101080.69;6097685;28;20041;-65
2023/08/13 01:42:59;;;;;;;5.28;2.65;;;;;;;16.52;100.00;101097.22;6100017;28;20115;-65
2023/08/13 01:45:54;;;;;;;5.82;2.65;;;;;;;16.46;100.00;101092.56;6099080;28;20029;-65
2023/08/13 01:48:49;;;;;;;3.90;2.10;;;;;;;16.47;100.00;101098.78;6098740;28;20352;-65
2023/08/13 01:51:45;;;;;;;4.90;2.40;;;;;;;16.36;100.00;101081.22;6099677;28;20016;-65
2023/08/13 01:54:40;;;;;;;4.90;2.67;;;;;;;16.41;100.00;101094.94;6098740;28;20033;-65
2023/08/13 01:57:36;;;;;;;7.87;2.83;;;;;;;16.56;100.00;101100.41;6098854;28;20040;-65
2023/08/13 02:00:31;;;;;;;7.13;3.53;;;;;;;16.47;100.00;101094.22;6099287;28;20427;-65
2023/08/13 02:03:26;;;;;;;6.38;2.90;;;;;;;16.52;100.00;101097.22;6099543;28;20075;-66
2023/08/13 02:06:22;;;;;;;7.33;3.10;;;;;;;16.39;100.00;101091.59;6099209;28;20041;-65
2023/08/13 02:09:17;;;;;;;7.05;3.05;;;;;;;16.36;100.00;101094.59;6098961;28;20749;-66
2023/08/13 02:12:13;;;;;;;5.63;3.03;;;;;;;16.22;100.00;101084.66;6099211;28;20025;-66
2023/08/13 02:15:08;;;;;;;7.87;2.90;;;;;;;16.26;100.00;101090.47;6099143;28;20392;-65
2023/08/13 02:18:04;;;;;;;4.63;2.72;;;;;;;16.16;100.00;101090.69;6103872;28;20024;-65
2023/08/13 02:20:59;;;;;;;5.07;2.80;;;;;;;15.98;100.00;101082.06;6111477;28;20177;-65
2023/08/13 02:23:54;;;;;;;7.10;3.00;;;;;;;15.95;100.00;101093.91;6100612;28;20033;-66
2023/08/13 02:26:49;;;;;;;9.67;3.10;;;;;;;15.94;100.00;101104.81;6098705;28;20060;-65
2023/08/13 02:29:45;;;;;;;5.33;2.87;;;;;;;15.87;100.00;101093.13;6098529;28;20408;-65
2023/08/13 02:32:40;;;;;;;6.07;3.00;;;;;;;15.95;100.00;101107.28;6098845;28;20364;-65
2023/08/13 02:35:35;;;;;;;8.43;3.50;;;;;;;15.84;100.00;101088.97;6097989;28;20276;-65
2023/08/13 02:38:31;;;;;;;7.23;3.20;;;;;;;15.73;100.00;101077.78;6109529;28;20282;-65
2023/08/13 02:41:26;;;;;;;7.00;2.80;;;;;;;15.73;100.00;101081.28;6098386;28;20076;-65
2023/08/13 02:44:22;;;;;;;5.53;2.90;;;;;;;15.70;100.00;101078.94;6097793;28;20025;-65
2023/08/13 02:47:18;;;;;;;6.47;3.72;;;;;;;15.78;100.00;101097.66;6098239;28;20461;-65
2023/08/13 02:50:13;;;;;;;4.87;3.00;;;;;;;15.78;100.00;101086.13;6098473;28;20078;-65
2023/08/13 02:53:09;;;;;;;5.30;3.35;;;;;;;15.70;100.00;101099.50;6098183;28;20086;-65
2023/08/13 02:56:04;;;;;;;8.17;3.47;;;;;;;15.86;100.00;101104.81;6097406;28;20047;-65
2023/08/13 02:58:59;;;;;;;7.53;3.57;;;;;;;15.64;100.00;101100.16;6098189;28;20033;-65
2023/08/13 03:01:54;;;;;;;9.90;3.87;;;;;;;15.55;100.00;101091.31;6097975;28;20040;-66
2023/08/13 03:04:51;;;;;;;9.23;4.00;;;;;;;15.58;100.00;101095.50;6097528;28;20033;-65
2023/08/13 03:07:46;;;;;;;5.38;3.58;;;;;;;15.60;100.00;101098.84;6097741;28;20039;-65
2023/08/13 03:10:42;;;;;;;6.27;4.00;;;;;;;15.69;100.00;101109.34;6101471;28;20033;-65
2023/08/13 03:13:37;;;;;;;7.20;3.50;;;;;;;15.79;100.00;101093.16;6097061;28;20271;-65
2023/08/13 03:16:32;;;;;;;9.27;4.47;;;;;;;15.95;100.00;101109.16;6097970;28;20767;-65
2023/08/13 03:19:28;;;;;;;12.03;4.50;;;;;;;15.81;100.00;101091.97;6097774;28;20298;-65
2023/08/13 03:22:23;;;;;;;8.43;4.03;;;;;;;15.98;100.00;101119.53;6097565;28;20260;-65
2023/08/13 03:25:18;;;;;;;7.27;3.80;;;;;;;16.03;100.00;101107.28;6103694;28;20279;-65
2023/08/13 03:28:14;;;;;;;8.05;4.10;;;;;;;16.01;100.00;101103.09;6097505;28;20025;-65
2023/08/13 03:31:09;;;;;;;6.70;3.17;;;;;;;16.11;100.00;101108.28;6097719;28;20051;-66
2023/08/13 03:34:04;;;;;;;8.37;3.90;;;;;;;16.04;100.00;101108.09;6097163;28;20064;-65
2023/08/13 03:37:00;;;;;;;7.10;3.30;;;;;;;16.15;100.00;101099.72;6097427;28;20379;-65
2023/08/13 03:39:55;;;;;;;6.22;3.55;;;;;;;16.13;100.00;101098.22;6097635;28;20353;-65
2023/08/13 03:42:50;;;;;;;8.03;3.87;;;;;;;15.99;100.00;101079.22;6095198;28;20029;-65
2023/08/13 03:45:46;;;;;;;8.50;3.90;;;;;;;15.96;100.00;101084.06;6096908;28;20055;-65
2023/08/13 03:48:41;;;;;;;7.87;3.70;;;;;;;16.02;100.00;101110.13;6097416;28;20032;-65
2023/08/13 03:51:36;;;;;;;5.60;3.47;;;;;;;15.98;100.00;101104.28;6097116;28;20021;-66
2023/08/13 03:54:32;;;;;;;8.00;3.40;;;;;;;15.92;100.00;101101.47;6096765;28;20033;-66
2023/08/13 03:57:27;;;;;;;8.77;3.70;;;;;;;15.97;100.00;101109.81;6098292;28;20410;-65
2023/08/13 04:00:22;;;;;;;6.60;3.28;;;;;;;15.99;100.00;101110.47;6105791;28;20044;-65
2023/08/13 04:03:17;;;;;;;5.60;3.13;;;;;;;15.99;100.00;101116.66;6096955;28;20473;-66
2023/08/13 04:06:13;;;;;;;5.70;3.20;;;;;;;15.95;100.00;101109.97;6096929;28;20021;-65
2023/08/13 04:09:08;;;;;;;6.03;3.20;;;;;;;16.05;100.00;101115.13;6097092;28;20079;-65
2023/08/13 04:12:04;;;;;;;7.63;3.90;;;;;;;16.01;100.00;101103.94;6096920;28;20111;-65
2023/08/13 04:14:59;;;;;;;8.70;4.03;;;;;;;16.03;100.00;101093.88;6097450;28;20089;-65
2023/08/13 04:17:54;;;;;;;7.57;4.50;;;;;;;15.95;100.00;101103.81;6097197;28;20044;-65
2023/08/13 04:20:50;;;;;;;8.57;3.87;;;;;;;16.06;100.00;101117.63;6096839;28;20670;-65
2023/08/13 04:23:45;;;;;;;8.00;4.57;;;;;;;16.13;100.00;101107.09;6100576;28;20272;-65
2023/08/13 04:26:40;;;;;;;6.77;3.30;;;;;;;16.20;100.00;101121.44;6101511;28;20028;-65
2023/08/13 04:29:36;;;;;;;9.50;3.63;;;;;;;16.12;100.00;101102.72;6102629;28;20371;-65
2023/08/13 04:32:32;;;;;;;9.90;3.40;;;;;;;16.27;100.00;101114.41;6101462;28;20040;-65
2023/08/13 04:35:27;;;;;;;8.15;3.88;;;;;;;16.34;100.00;101120.72;6100719;28;20089;-65
2023/08/13 04:38:22;;;;;;;7.78;4.05;;;;;;;16.23;100.00;101099.69;6101309;28;20037;-65
2023/08/13 04:41:18;;;;;;;7.63;3.20;;;;;;;16.27;100.00;101106.38;6097245;28;20028;-65
2023/08/13 04:44:13;;;;;;;7.43;3.47;;;;;;;16.26;100.00;101112.72;6100829;28;20029;-65
2023/08/13 04:47:08;;;;;;;7.47;3.50;;;;;;;16.36;100.00;101124.06;6111577;28;20032;-65
2023/08/13 04:50:05;;;;;;;6.73;3.20;;;;;;;16.26;100.00;101117.22;6101287;28;20040;-65
2023/08/13 04:53:00;;;;;;;8.40;3.50;;;;;;;16.62;100.00;101126.50;6101049;28;20056;-65
2023/08/13 04:55:56;;;;;;;7.57;3.23;;;;;;;16.67;100.00;101116.94;6101903;28;20033;-64
2023/08/13 04:58:51;;;;;;;5.73;3.97;;;;;;;16.71;100.00;101127.28;6101056;28;20059;-65
2023/08/13 05:01:47;;;;;;;7.07;3.47;;;;;;;16.77;100.00;101127.41;6099129;28;20027;-65
2023/08/13 05:04:43;;;;;;;8.13;3.35;;;;;;;16.70;100.00;101125.63;6100034;28;20112;-65
2023/08/13 05:07:38;;;;;;;8.67;3.63;;;;;;;16.58;100.00;101130.50;6100744;28;20025;-65
2023/08/13 05:10:33;;;;;;;8.20;3.30;;;;;;;16.47;100.00;101104.13;6100511;28;20060;-64
2023/08/13 05:13:29;;;;;;;6.88;3.33;;;;;;;16.79;100.00;101121.88;6099861;28;20032;-65
2023/08/13 05:16:24;;;;;;;6.13;3.40;;;;;;;16.62;100.00;101121.97;6100561;28;20035;-65
2023/08/13 05:19:19;;;;;;;5.90;2.97;;;;;;;16.53;100.00;101125.69;6103923;28;20036;-65
2023/08/13 05:22:15;;;;;;;7.03;3.23;;;;;;;16.51;100.00;101133.03;6100121;28;20434;-65
2023/08/13 05:25:11;;;;;;;5.13;3.20;;;;;;;16.43;100.00;101119.69;6099488;28;21163;-65
2023/08/13 05:28:07;;;;;;;8.23;3.53;;;;;;;16.32;100.00;101122.75;6100322;28;20024;-65
2023/08/13 05:31:05;;;;;;;4.93;3.38;;;;;;;16.40;100.00;101136.09;6100051;28;20472;-65
2023/08/13 05:34:00;;;;;;;6.35;3.33;;;;;;;16.33;100.00;101123.59;6100199;28;20025;-65
2023/08/13 05:36:55;;;;;;;5.63;3.25;;;;;;;16.43;100.00;101118.84;6100076;28;20025;-65
2023/08/13 05:39:51;;;;;;;7.10;3.03;;;;;;;16.59;100.00;101132.19;6099870;28;20021;-65
2023/08/13 05:42:47;;;;;;;8.57;3.47;;;;;;;16.86;100.00;101120.16;6100025;28;20028;-65
2023/08/13 05:45:43;;;;;;;5.25;3.13;;;;;;;17.23;100.00;101107.66;6099075;28;20029;-65
2023/08/13 05:48:38;;;;;;;7.07;3.10;;;;;;;17.59;100.00;101118.63;6099995;28;20052;-65
2023/08/13 05:51:33;;;;;;;4.97;2.92;;;;;;;17.81;100.00;101133.84;6100722;28;20287;-65
2023/08/13 05:54:29;;;;;;;5.87;2.60;;;;;;;17.79;100.00;101119.78;6098810;28;20040;-65
2023/08/13 05:57:24;;;;;;;7.78;2.97;;;;;;;17.70;100.00;101120.88;6099701;28;20096;-65
2023/08/13 06:00:19;;;;;;;5.10;2.50;;;;;;;18.45;100.00;101121.53;6099294;28;20028;-65
2023/08/13 06:03:15;;;;;;;6.38;2.72;;;;;;;18.75;100.00;101132.28;6099282;28;20163;-65
2023/08/13 06:06:10;;;;;;;4.75;2.50;;;;;;;18.79;100.00;101134.41;6100197;28;20033;-65
2023/08/13 06:09:06;;;;;;;4.90;2.27;;;;;;;18.88;100.00;101116.31;6099044;28;20048;-65
2023/08/13 06:12:01;;;;;;;5.03;2.20;;;;;;;19.31;100.00;101127.91;6099251;28;20055;-65
2023/08/13 06:14:57;;;;;;;5.57;2.33;;;;;;;19.46;100.00;101126.00;6098466;28;20481;-65
2023/08/13 06:17:53;;;;;;;5.18;2.20;;;;;;;19.91;100.00;101130.94;6099279;28;20060;-65
2023/08/13 06:20:48;;;;;;;6.27;2.30;;;;;;;19.50;100.00;101136.22;6098778;28;20029;-65
2023/08/13 06:23:43;;;;;;;6.28;2.63;;;;;;;19.55;100.00;101133.75;6105963;28;20037;-65
2023/08/13 06:26:39;;;;;;;5.97;2.47;;;;;;;19.11;100.00;101148.38;6099015;28;20494;-65
2023/08/13 06:29:34;;;;;;;4.90;2.40;;;;;;;18.97;100.00;101150.94;6098721;28;20021;-65
2023/08/13 06:32:29;;;;;;;4.65;2.58;;;;;;;19.23;100.00;101152.25;6098919;28;20275;-65
2023/08/13 06:35:25;;;;;;;4.23;2.40;;;;;;;19.77;100.00;101156.09;6098173;28;20025;-65
2023/08/13 06:38:20;;;;;;;6.07;2.20;;;;;;;19.64;100.00;101142.53;6099253;28;20028;-65
2023/08/13 06:41:15;;;;;;;4.60;2.23;;;;;;;19.57;100.00;101155.09;6104010;28;20104;-65
2023/08/13 06:44:18;;;;;;;5.43;2.40;;;;;;;19.43;100.00;101169.47;6096943;28;20345;-65
2023/08/13 06:47:14;;;;;;;5.57;2.10;;;;;;;19.40;100.00;101159.94;6098598;28;20025;-65
2023/08/13 06:50:09;;;;;;;8.00;2.37;;;;;;;19.21;100.00;101159.69;6098438;28;20025;-65
2023/08/13 06:53:05;;;;;;;4.25;2.58;;;;;;;19.51;100.00;101158.56;6098045;28;20279;-65
2023/08/13 06:56:00;;;;;;;4.27;2.77;;;;;;;19.70;100.00;101157.06;6101409;28;20033;-65
2023/08/13 06:58:56;;;;;;;5.07;2.40;;;;;;;19.67;100.00;101161.00;6095896;28;20086;-65
2023/08/13 07:01:52;;;;;;;6.53;2.78;;;;;;;19.40;100.00;101159.09;6098124;28;20104;-65
2023/08/13 07:04:47;;;;;;;7.20;2.97;;;;;;;19.44;100.00;101165.72;6097840;28;20435;-65
2023/08/13 07:07:42;;;;;;;6.22;2.42;;;;;;;19.54;100.00;101174.34;6097977;28;20468;-65
2023/08/13 07:10:38;;;;;;;7.63;2.60;;;;;;;19.86;100.00;101165.69;6097751;28;20500;-65
2023/08/13 07:13:33;;;;;;;8.10;2.50;;;;;;;20.45;100.00;101174.19;6098087;28;20113;-65
2023/08/13 07:16:30;;;;;;;7.57;2.90;;;;;;;20.85;100.00;101167.13;6097961;28;20023;-65
2023/08/13 07:19:25;;;;;;;4.80;2.67;;;;;;;20.81;100.00;101168.56;6097909;28;20789;-65
2023/08/13 07:22:21;;;;;;;7.03;2.87;;;;;;;20.55;100.00;101171.13;6098015;28;20039;-65
2023/08/13 07:25:16;;;;;;;5.03;2.67;;;;;;;20.58;100.00;101176.13;6097100;28;20263;-65
2023/08/13 07:28:12;;;;;;;7.70;2.63;;;;;;;20.72;100.00;101177.84;6099456;28;20483;-66
2023/08/13 07:31:07;;;;;;;14.57;2.30;;;;;;;21.07;98.51;101168.69;6101417;28;20650;-64
2023/08/13 07:34:03;;;;;;;6.47;2.80;;;;;;;21.67;95.94;101177.69;6097139;28;20274;-65
2023/08/13 07:36:58;;;;;;;5.93;1.92;;;;;;;22.02;93.67;101176.47;6097539;28;20353;-65
2023/08/13 07:39:53;;;;;;;4.95;2.20;;;;;;;22.44;91.36;101159.78;6097443;28;20586;-65
2023/08/13 07:42:49;;;;;;;6.83;2.10;;;;;;;22.39;88.54;101175.78;6097485;28;20444;-65
2023/08/13 07:45:44;;;;;;;5.40;1.97;;;;;;;22.17;87.94;101163.59;6098082;28;20033;-65
2023/08/13 07:48:39;;;;;;;5.27;2.03;;;;;;;22.46;86.74;101171.22;6097415;28;20024;-65
2023/08/13 07:51:34;;;;;;;3.83;2.20;;;;;;;22.61;83.36;101178.25;6097550;28;20033;-65
2023/08/13 07:54:30;;;;;;;7.77;2.50;;;;;;;22.22;83.26;101166.50;6096610;28;20534;-65
2023/08/13 07:57:25;;;;;;;4.97;1.80;;;;;;;22.06;81.41;101161.53;6096137;28;20083;-65
2023/08/13 08:00:20;;;;;;;11.23;2.00;;;;;;;22.24;78.88;101174.38;6097634;28;20087;-65
2023/08/13 08:03:16;;;;;;;5.93;1.70;;;;;;;21.83;77.82;101185.38;6104581;28;20099;-65
2023/08/13 08:06:14;;;;;;;5.68;1.80;;;;;;;21.84;79.87;101178.97;6102023;28;20033;-65
2023/08/13 08:09:10;;;;;;;5.03;1.60;;;;;;;21.60;77.66;101168.78;6102039;28;20037;-65
2023/08/13 08:12:05;;;;;;;4.07;1.63;;;;;;;21.81;79.40;101165.88;6101569;28;20021;-65
2023/08/13 08:15:01;;;;;;;8.75;1.85;;;;;;;22.02;76.99;101167.53;6101340;28;20263;-65
2023/08/13 08:17:56;;;;;;;6.47;1.63;;;;;;;22.27;75.85;101168.53;6102793;28;20028;-65
2023/08/13 08:20:52;;;;;;;3.63;1.50;;;;;;;22.72;74.62;101183.03;6102017;28;20044;-65
2023/08/13 08:23:47;;;;;;;5.33;1.63;;;;;;;22.95;72.64;101169.78;6101135;28;20025;-65
2023/08/13 08:26:42;;;;;;;5.67;1.60;;;;;;;22.85;70.04;101166.72;6101418;28;20055;-65
2023/08/13 08:29:38;;;;;;;5.40;1.67;;;;;;;22.93;71.74;101177.31;6101668;28;20275;-65
2023/08/13 08:32:35;;;;;;;7.40;1.80;;;;;;;22.76;71.54;101163.44;6095245;28;20358;-64
2023/08/13 08:35:31;;;;;;;6.88;1.70;;;;;;;22.89;70.83;101174.19;6100564;28;20100;-65
2023/08/13 08:38:27;;;;;;;5.07;1.50;;;;;;;23.19;70.46;101179.88;6101251;28;20479;-65
2023/08/13 08:41:22;;;;;;;4.23;1.70;;;;;;;23.22;71.84;101170.47;6105853;28;20025;-65
2023/08/13 08:44:20;;;;;;;5.87;2.00;;;;;;;22.87;70.65;101172.75;6100759;28;20025;-65
2023/08/13 08:47:16;;;;;;;7.05;1.70;;;;;;;22.58;71.24;101173.25;6101048;28;20888;-65
2023/08/13 08:50:13;;;;;;;6.15;1.30;;;;;;;22.28;72.84;101165.66;6108206;28;20036;-65
2023/08/13 08:53:08;;;;;;;6.65;1.63;;;;;;;21.99;69.98;101166.09;6100928;28;20108;-65
2023/08/13 08:56:04;;;;;;;2.83;1.33;;;;;;;21.95;71.11;101164.88;6099255;28;20032;-65
2023/08/13 08:58:59;;;;;;;4.63;1.30;;;;;;;22.18;68.80;101180.59;6087788;28;20025;-64
2023/08/13 09:01:54;;;;;;;4.73;1.20;;;;;;;22.36;69.88;101162.72;6100649;28;20060;-65
2023/08/13 09:04:50;;;;;;;4.07;1.33;;;;;;;22.56;68.45;101168.03;6101435;28;20567;-65
2023/08/13 09:07:45;;;;;;;3.42;1.10;;;;;;;22.52;70.68;101159.56;6099701;28;20116;-65
2023/08/13 09:10:42;;;;;;;4.37;1.33;;;;;;;22.88;67.56;101164.41;6100490;28;20056;-65
2023/08/13 09:13:47;;;;;;;5.28;1.48;;;;;;;23.18;69.40;101161.16;6100065;28;20029;-65
2023/08/13 09:16:50;;;;;;;5.55;1.30;;;;;;;23.25;66.75;101164.63;6100433;28;20033;-65
2023/08/13 09:19:45;;;;;;;5.53;1.30;;;;;;;23.31;65.91;101161.06;6100752;28;20033;-65
2023/08/13 09:22:44;;;;;;;5.23;1.47;;;;;;;23.51;66.80;101167.19;6101276;28;20040;-65
2023/08/13 09:25:39;;;;;;;6.07;1.40;;;;;;;23.45;64.94;101144.56;6099842;28;20028;-65
2023/08/13 09:28:42;;;;;;;5.80;1.43;;;;;;;23.26;67.89;101153.59;6100198;28;20400;-65
2023/08/13 09:31:37;;;;;;;4.03;1.38;;;;;;;22.89;66.57;101144.44;6100291;28;20758;-65
2023/08/13 09:34:33;;;;;;;8.93;1.60;;;;;;;22.78;68.27;101161.34;6099634;28;20021;-65
2023/08/13 09:37:29;;;;;;;7.63;1.88;;;;;;;22.74;69.93;101153.88;6101021;28;20272;-65
2023/08/13 09:40:25;;;;;;;3.85;1.40;;;;;;;22.93;68.70;101152.97;6100109;28;20082;-66
2023/08/13 09:43:24;;;;;;;6.60;1.60;;;;;;;23.23;66.04;101145.09;6098006;28;20021;-66
2023/08/13 09:46:23;;;;;;;3.63;1.40;;;;;;;23.50;64.88;101141.16;6098782;28;20029;-66
2023/08/13 09:49:19;;;;;;;8.38;1.83;;;;;;;23.35;65.55;101141.44;6099827;28;20102;-65
2023/08/13 09:52:15;;;;;;;4.90;1.40;;;;;;;23.46;62.70;101150.78;6099426;28;20021;-66
2023/08/13 09:55:15;;;;;;;4.50;1.42;;;;;;;24.01;60.80;101163.44;6108761;28;20071;-66
2023/08/13 09:58:12;;;;;;;4.45;1.63;;;;;;;24.12;64.10;101151.91;6103751;28;20073;-65
2023/08/13 10:01:08;;;;;;;3.85;1.30;;;;;;;24.03;61.87;101155.06;6098269;28;20035;-65
2023/08/13 10:04:03;;;;;;;5.55;1.70;;;;;;;23.98;60.57;101141.38;6098678;28;20021;-65
2023/08/13 10:06:59;;;;;;;5.47;1.50;;;;;;;24.45;59.33;101138.00;6102943;28;20033;-65
2023/08/13 10:09:55;;;;;;;5.55;1.65;;;;;;;24.62;60.43;101147.16;6099211;28;20482;-65
2023/08/13 10:12:50;;;;;;;4.60;1.65;;;;;;;24.92;61.65;101159.97;6097881;28;20028;-66
2023/08/13 10:15:46;;;;;;;4.53;1.50;;;;;;;24.89;58.10;101144.16;6098565;28;20028;-66
2023/08/13 10:18:45;;;;;;;5.80;1.90;;;;;;;25.22;58.78;101144.53;6098760;28;20132;-65
2023/08/13 10:21:40;;;;;;;2.83;1.23;;;;;;;25.09;58.47;101150.94;6099309;28;20461;-66
2023/08/13 10:24:35;;;;;;;5.90;1.50;;;;;;;24.91;57.14;101161.03;6098997;28;20035;-65
2023/08/13 10:27:34;;;;;;;5.07;1.43;;;;;;;24.73;57.74;101140.97;6098858;28;20739;-66
2023/08/13 10:30:30;;;;;;;8.40;1.45;;;;;;;24.92;58.02;101140.97;6098899;28;20033;-66
2023/08/13 10:33:29;;;;;;;3.53;1.48;;;;;;;24.64;57.69;101136.91;6098004;28;20453;-66
2023/08/13 10:36:41;;;;;;;6.55;1.60;;;;;;;25.02;56.65;101146.69;6098891;28;20432;-66
2023/08/13 10:39:42;;;;;;;7.57;1.70;;;;;;;24.43;57.78;101140.09;6097219;28;20349;-66
2023/08/13 10:42:37;;;;;;;5.68;1.65;;;;;;;24.57;60.57;101138.88;6100805;28;20033;-66
2023/08/13 10:45:35;;;;;;;7.50;2.20;;;;;;;24.74;58.27;101147.22;6097891;28;20075;-65
2023/08/13 10:48:30;;;;;;;4.57;1.73;;;;;;;25.14;59.23;101132.06;6098632;28;20473;-66
2023/08/13 10:51:26;;;;;;;3.27;1.40;;;;;;;24.93;54.84;101120.91;6097281;28;20078;-65
2023/08/13 10:54:25;;;;;;;6.03;1.45;;;;;;;25.05;55.73;101138.06;6097298;28;20116;-66
2023/08/13 10:57:27;;;;;;;6.22;1.92;;;;;;;24.82;57.17;101133.38;6098341;28;20025;-66
2023/08/13 11:00:25;;;;;;;7.00;1.52;;;;;;;24.76;56.49;101135.06;6089151;28;20887;-66
2023/08/13 11:03:22;;;;;;;6.57;1.73;;;;;;;25.06;57.67;101137.03;6097748;28;20061;-66
2023/08/13 11:06:22;;;;;;;5.90;1.70;;;;;;;25.04;55.62;101136.41;6098117;28;20029;-66
2023/08/13 11:09:17;;;;;;;3.88;1.45;;;;;;;24.57;57.20;101147.00;6097814;28;20025;-66
2023/08/13 11:12:12;;;;;;;6.07;1.57;;;;;;;24.71;59.65;101124.09;6096834;28;20079;-66
2023/08/13 11:15:08;;;;;;;4.67;1.60;;;;;;;25.12;56.32;101114.38;6098309;28;20036;-66
2023/08/13 11:18:03;;;;;;;5.38;1.77;;;;;;;25.64;55.81;101113.56;6098071;28;20111;-66
2023/08/13 11:20:59;;;;;;;4.93;1.80;;;;;;;26.00;54.80;101117.94;6097830;28;20480;-66
2023/08/13 11:23:54;;;;;;;4.80;1.70;;;;;;;26.09;51.34;101118.41;6095657;28;20094;-65
2023/08/13 11:26:51;;;;;;;6.50;1.90;;;;;;;26.08;51.68;101119.47;6097821;28;20029;-66
2023/08/13 11:29:46;;;;;;;7.60;1.80;;;;;;;26.32;53.26;101123.84;6098518;28;20040;-66
2023/08/13 11:32:41;;;;;;;4.53;1.73;;;;;;;26.23;50.38;101108.94;6097298;28;20423;-66
2023/08/13 11:35:37;;;;;;;5.83;1.80;;;;;;;26.76;49.89;101114.13;6090905;28;20043;-66
2023/08/13 11:38:32;;;;;;;3.00;1.30;;;;;;;26.94;49.23;101100.34;6097227;28;20039;-66
2023/08/13 11:41:28;;;;;;;5.75;2.00;;;;;;;26.99;50.00;101108.59;6097644;28;20033;-66
2023/08/13 11:44:23;;;;;;;3.93;1.50;;;;;;;26.54;49.78;101105.81;6097234;28;20112;-66
2023/08/13 11:47:27;;;;;;;6.17;1.70;;;;;;;26.53;48.63;101083.22;6090109;28;20290;-66
2023/08/13 11:50:23;;;;;;;4.47;1.40;;;;;;;26.76;49.05;101081.47;6097328;28;20025;-66
2023/08/13 11:53:20;;;;;;;6.07;1.85;;;;;;;27.12;50.14;101097.44;6097118;28;20036;-66
2023/08/13 11:56:17;;;;;;;8.50;2.42;;;;;;;26.86;49.04;101093.41;6097130;28;20028;-66
2023/08/13 11:59:12;;;;;;;7.28;2.33;;;;;;;26.50;49.16;101094.56;6097257;28;20079;-66
2023/08/13 12:02:08;;;;;;;3.97;1.52;;;;;;;27.20;47.82;101078.78;6097252;28;20037;-66
2023/08/13 12:05:03;;;;;;;5.18;1.88;;;;;;;26.31;49.71;101078.69;6096453;28;20040;-66
2023/08/13 12:08:00;;;;;;;5.30;1.80;;;;;;;26.21;48.61;101094.78;6097499;28;20024;-66
2023/08/13 12:10:57;;;;;;;6.30;1.88;;;;;;;26.25;48.62;101066.88;6097100;28;20097;-66
2023/08/13 12:13:52;;;;;;;5.22;1.98;;;;;;;26.25;50.41;101082.38;6096338;28;20032;-67
2023/08/13 12:16:47;;;;;;;6.67;2.20;;;;;;;26.84;49.44;101071.06;6097265;28;20052;-66
2023/08/13 12:19:44;;;;;;;3.87;1.50;;;;;;;26.81;47.65;101078.88;6098118;28;20304;-66
2023/08/13 12:22:40;;;;;;;7.07;1.80;;;;;;;26.27;50.27;101088.38;6097289;28;20263;-66
2023/08/13 12:25:35;;;;;;;7.13;1.80;;;;;;;25.90;50.80;101066.88;6096384;28;20090;-66
2023/08/13 12:28:30;;;;;;;7.85;1.92;;;;;;;25.90;51.64;101066.88;6096809;28;20587;-67
2023/08/13 12:31:26;;;;;;;4.00;1.53;;;;;;;26.03;50.41;101072.09;6097077;28;20083;-66
2023/08/13 12:34:22;;;;;;;8.65;2.08;;;;;;;25.87;51.22;101055.69;6096151;28;20102;-66
2023/08/13 12:37:17;;;;;;;5.40;2.30;;;;;;;26.39;50.69;101072.88;6097696;28;20078;-66
2023/08/13 12:40:12;;;;;;;7.00;2.10;;;;;;;26.06;50.61;101053.63;6102307;28;20033;-66
2023/08/13 12:43:08;;;;;;;5.38;1.63;;;;;;;25.82;51.63;101080.81;6098208;28;20064;-66
2023/08/13 12:46:05;;;;;;;4.57;1.70;;;;;;;25.64;51.26;101067.38;6100796;28;20107;-66
2023/08/13 12:49:00;;;;;;;5.35;2.60;;;;;;;26.11;52.49;101061.91;6101083;28;20873;-66
2023/08/13 12:51:57;;;;;;;6.23;1.90;;;;;;;26.08;51.31;101073.25;6102223;28;20017;-66
2023/08/13 12:54:52;;;;;;;6.30;1.60;;;;;;;26.29;50.58;101059.03;6100309;28;20032;-67
2023/08/13 12:57:47;;;;;;;6.63;1.70;;;;;;;26.76;49.68;101052.38;6101104;28;20043;-66
2023/08/13 13:00:43;;;;;;;5.60;1.80;;;;;;;27.53;48.28;101041.75;6100995;28;20025;-66
2023/08/13 13:03:38;;;;;;;6.97;1.90;;;;;;;27.71;47.59;101045.03;6100092;28;20028;-66
2023/08/13 13:06:33;;;;;;;3.70;1.90;;;;;;;27.73;47.47;101044.75;6104870;28;20267;-67
2023/08/13 13:09:29;;;;;;;3.90;1.60;;;;;;;27.57;48.32;101048.34;6101638;28;20086;-67
2023/08/13 13:12:24;;;;;;;6.57;2.07;;;;;;;27.64;47.94;101040.84;6100783;28;20029;-66
2023/08/13 13:15:20;;;;;;;4.93;1.73;;;;;;;27.16;48.40;101050.38;6095830;28;20140;-66
2023/08/13 13:18:15;;;;;;;4.25;1.50;;;;;;;26.53;50.04;101041.56;6100353;28;20024;-67
2023/08/13 13:21:11;;;;;;;5.03;2.17;;;;;;;25.89;51.79;101057.09;6100727;28;20446;-66
2023/08/13 13:24:06;;;;;;;3.70;1.60;;;;;;;25.54;54.40;101041.88;6100581;28;20542;-67
2023/08/13 13:27:02;;;;;;;5.55;1.95;;;;;;;25.55;54.10;101040.81;6100393;28;20025;-66
2023/08/13 13:29:57;;;;;;;4.65;1.85;;;;;;;25.90;55.72;101039.69;6100248;28;20088;-66
2023/08/13 13:32:52;;;;;;;3.03;1.50;;;;;;;26.25;53.39;101030.69;6099975;28;20043;-66
2023/08/13 13:35:48;;;;;;;4.17;1.90;;;;;;;26.67;51.28;101023.06;6099410;28;20264;-67